createdAt,value
2022-11-21T00:01:30.038Z,140.30
2022-11-21T00:03:31.802Z,132.90
2022-11-21T00:05:33.969Z,136.18
2022-11-21T00:07:36.166Z,135.85
2022-11-21T00:09:37.945Z,133.50
2022-11-21T00:11:40.070Z,135.70
2022-11-21T00:13:42.179Z,128.35
2022-11-21T00:15:44.627Z,133.75
2022-11-21T00:17:46.758Z,131.65
2022-11-21T00:19:48.515Z,133.50
2022-11-21T00:21:50.319Z,136.35
2022-11-21T00:23:52.987Z,144.20
2022-11-21T00:25:54.899Z,108.90
2022-11-21T00:27:56.653Z,132.63
2022-11-21T00:29:58.799Z,130.32
2022-11-21T00:32:00.538Z,132.02
2022-11-21T00:34:02.680Z,137.52
2022-11-21T00:36:09.357Z,139.40
2022-11-21T00:38:11.185Z,139.80
2022-11-21T00:40:13.030Z,132.90
2022-11-21T00:42:15.138Z,142.10
2022-11-21T00:44:16.916Z,137.75
2022-11-21T00:46:18.970Z,133.00
2022-11-21T00:48:21.091Z,136.60
2022-11-21T00:50:22.845Z,139.55
2022-11-21T00:52:24.657Z,134.98
2022-11-21T00:54:27.047Z,135.60
2022-11-21T00:56:28.915Z,136.35
2022-11-21T00:58:30.816Z,142.65
2022-11-21T01:00:33.037Z,136.40
2022-11-21T01:02:34.871Z,134.18
2022-11-21T01:04:36.660Z,140.45
2022-11-21T01:06:38.921Z,141.68
2022-11-21T01:08:43.267Z,126.35
2022-11-21T01:10:45.004Z,134.50
2022-11-21T01:12:47.113Z,136.68
2022-11-21T01:14:49.294Z,138.70
2022-11-21T01:16:51.110Z,133.00
2022-11-21T01:18:53.513Z,135.50
2022-11-21T01:20:59.683Z,141.87
2022-11-21T01:23:01.671Z,131.43
2022-11-21T01:25:04.040Z,138.75
2022-11-21T01:27:05.829Z,150.07
2022-11-21T01:29:08.884Z,132.38
2022-11-21T01:31:14.452Z,138.60
2022-11-21T01:33:16.230Z,146.52
2022-11-21T01:35:19.492Z,138.57
2022-11-21T01:37:21.605Z,140.82
2022-11-21T01:39:23.377Z,144.85
2022-11-21T01:41:31.309Z,138.38
2022-11-21T01:43:33.592Z,144.23
2022-11-21T01:45:57.472Z,134.30
2022-11-21T01:47:59.737Z,145.88
2022-11-21T01:50:02.379Z,143.45
2022-11-21T01:52:16.454Z,144.70
2022-11-21T01:54:47.565Z,149.23
2022-11-21T01:56:55.450Z,140.15
2022-11-21T01:58:59.897Z,134.00
2022-11-21T02:01:03.196Z,132.98
2022-11-21T02:03:12.759Z,144.02
2022-11-21T02:05:22.430Z,135.38
2022-11-21T02:07:26.486Z,142.20
2022-11-21T02:09:31.796Z,141.20
2022-11-21T02:11:49.397Z,146.30
2022-11-21T02:13:51.496Z,139.07
2022-11-21T02:15:53.764Z,154.88
2022-11-21T02:17:56.284Z,134.10
2022-11-21T02:20:04.196Z,149.95
2022-11-21T02:22:27.465Z,138.73
2022-11-21T02:24:39.002Z,142.27
2022-11-21T02:26:41.474Z,141.98
2022-11-21T02:28:44.099Z,137.20
2022-11-21T02:30:46.576Z,145.60
2022-11-21T02:32:48.420Z,135.07
2022-11-21T02:34:50.654Z,136.57
2022-11-21T02:36:52.515Z,144.90
2022-11-21T02:38:54.280Z,140.38
2022-11-21T02:41:26.584Z,148.43
2022-11-21T02:43:33.392Z,144.82
2022-11-21T02:45:39.879Z,137.38
2022-11-21T02:47:44.503Z,139.15
2022-11-21T02:50:09.707Z,147.70
2022-11-21T02:52:11.807Z,147.13
2022-11-21T02:54:13.806Z,158.77
2022-11-21T02:56:15.630Z,149.80
2022-11-21T02:58:18.252Z,112.38
2022-11-21T03:00:20.963Z,157.18
2022-11-21T03:02:22.899Z,148.27
2022-11-21T03:04:26.715Z,144.50
2022-11-21T03:06:28.742Z,144.60
2022-11-21T03:08:30.529Z,151.23
2022-11-21T03:10:33.530Z,147.65
2022-11-21T03:12:40.165Z,151.55
2022-11-21T03:14:42.485Z,165.05
2022-11-21T03:16:44.770Z,153.75
2022-11-21T03:18:46.558Z,149.45
2022-11-21T03:20:48.412Z,149.70
2022-11-21T03:22:50.610Z,158.93
2022-11-21T03:24:52.429Z,143.85
2022-11-21T03:26:54.486Z,143.02
2022-11-21T03:28:56.598Z,152.18
2022-11-21T03:30:58.380Z,150.20
2022-11-21T03:33:00.181Z,141.63
2022-11-21T03:35:02.280Z,151.13
2022-11-21T03:37:04.179Z,143.80
2022-11-21T03:39:06.061Z,117.50
2022-11-21T03:41:28.131Z,153.07
2022-11-21T03:43:29.926Z,152.13
2022-11-21T03:45:32.466Z,112.30
2022-11-21T03:47:34.703Z,148.60
2022-11-21T03:49:36.473Z,146.95
2022-11-21T03:51:38.770Z,147.35
2022-11-21T03:53:40.582Z,157.47
2022-11-21T03:55:43.046Z,148.10
2022-11-21T03:59:46.870Z,142.35
2022-11-21T04:01:48.652Z,154.43
2022-11-21T04:03:51.368Z,153.48
2022-11-21T04:05:53.122Z,152.88
2022-11-21T04:07:54.915Z,160.40
2022-11-21T04:09:57.356Z,138.57
2022-11-21T04:11:59.121Z,113.30
2022-11-21T04:14:00.862Z,144.48
2022-11-21T04:16:03.198Z,152.13
2022-11-21T04:18:04.981Z,142.23
2022-11-21T04:20:07.214Z,144.23
2022-11-21T04:22:09.351Z,141.45
2022-11-21T04:24:11.233Z,144.07
2022-11-21T04:26:13.027Z,156.90
2022-11-21T04:28:15.232Z,164.65
2022-11-21T04:30:17.138Z,184.38
2022-11-21T04:32:18.930Z,178.87
2022-11-21T04:34:21.227Z,166.73
2022-11-21T04:36:23.022Z,159.07
2022-11-21T04:38:25.027Z,160.50
2022-11-21T04:40:27.177Z,121.68
2022-11-21T04:42:28.959Z,162.77
2022-11-21T04:44:30.893Z,150.82
2022-11-21T04:46:33.245Z,156.98
2022-11-21T04:48:35.235Z,151.43
2022-11-21T04:50:37.098Z,160.20
2022-11-21T04:52:39.343Z,172.30
2022-11-21T04:54:41.156Z,161.60
2022-11-21T04:56:42.914Z,208.98
2022-11-21T04:58:45.241Z,155.85
2022-11-21T05:00:47.068Z,173.30
2022-11-21T05:02:48.955Z,157.60
2022-11-21T05:04:51.367Z,144.60
2022-11-21T05:06:53.113Z,142.80
2022-11-21T05:08:54.902Z,150.00
2022-11-21T05:11:15.666Z,124.95
2022-11-21T05:13:23.361Z,329.20
2022-11-21T05:15:25.555Z,154.43
2022-11-21T05:17:30.739Z,135.98
2022-11-21T05:19:32.495Z,144.55
2022-11-21T05:21:34.637Z,143.73
2022-11-21T05:23:36.655Z,137.85
2022-11-21T05:25:38.421Z,140.00
2022-11-21T05:27:40.564Z,111.43
2022-11-21T05:29:42.393Z,148.57
2022-11-21T05:31:44.165Z,146.52
2022-11-21T05:33:46.262Z,143.57
2022-11-21T05:35:48.037Z,142.63
2022-11-21T05:37:55.814Z,137.32
2022-11-21T05:39:58.130Z,150.68
2022-11-21T05:42:03.260Z,150.50
2022-11-21T05:44:05.442Z,144.80
2022-11-21T05:46:07.700Z,139.90
2022-11-21T05:48:09.653Z,124.07
2022-11-21T05:50:11.496Z,146.07
2022-11-21T05:52:13.634Z,154.85
2022-11-21T05:54:15.981Z,150.38
2022-11-21T05:56:19.550Z,172.65
2022-11-21T05:58:22.591Z,176.80
2022-11-21T06:00:24.499Z,342.10
2022-11-21T06:02:45.080Z,387.05
2022-11-21T06:04:47.210Z,313.15
2022-11-21T06:06:49.154Z,235.48
2022-11-21T06:08:50.911Z,198.67
2022-11-21T06:10:53.255Z,179.85
2022-11-21T06:12:55.039Z,166.60
2022-11-21T06:14:56.841Z,194.10
2022-11-21T06:16:58.963Z,204.77
2022-11-21T06:19:00.829Z,157.15
2022-11-21T06:21:04.821Z,172.63
2022-11-21T06:23:06.944Z,183.10
2022-11-21T06:25:09.263Z,170.63
2022-11-21T06:27:11.393Z,204.48
2022-11-21T06:29:13.215Z,161.88
2022-11-21T06:31:20.244Z,154.00
2022-11-21T06:33:22.448Z,162.02
2022-11-21T06:35:24.190Z,178.18
2022-11-21T06:37:26.112Z,185.17
2022-11-21T06:39:28.226Z,159.75
2022-11-21T06:41:31.046Z,165.63
2022-11-21T06:43:33.062Z,205.85
2022-11-21T06:45:35.158Z,125.05
2022-11-21T06:47:37.011Z,139.23
2022-11-21T06:49:38.934Z,181.73
2022-11-21T06:51:41.046Z,138.73
2022-11-21T06:53:42.859Z,147.68
2022-11-21T06:55:44.802Z,142.23
2022-11-21T06:57:46.904Z,135.35
2022-11-21T06:59:48.651Z,124.13
2022-11-21T07:01:50.639Z,137.73
2022-11-21T07:03:53.304Z,123.65
2022-11-21T07:05:58.615Z,115.18
2022-11-21T07:08:01.762Z,139.93
2022-11-21T07:10:04.226Z,179.63
2022-11-21T07:12:24.627Z,188.33
2022-11-21T07:14:26.747Z,237.15
2022-11-21T07:16:31.845Z,192.90
2022-11-21T07:18:34.263Z,146.40
2022-11-21T07:20:36.451Z,129.07
2022-11-21T07:22:38.334Z,122.68
2022-11-21T07:24:40.110Z,131.65
2022-11-21T07:26:42.723Z,116.18
2022-11-21T07:28:44.462Z,129.73
2022-11-21T07:30:46.410Z,131.05
2022-11-21T07:32:55.680Z,115.95
2022-11-21T07:34:57.507Z,105.97
2022-11-21T07:36:59.646Z,103.85
2022-11-21T07:39:01.820Z,106.68
2022-11-21T07:41:03.625Z,117.63
2022-11-21T07:43:10.669Z,114.78
2022-11-21T07:45:14.063Z,104.25
2022-11-21T07:49:17.898Z,100.78
2022-11-21T07:51:19.800Z,127.55
2022-11-21T07:53:21.670Z,99.65
2022-11-21T07:55:23.789Z,101.97
2022-11-21T07:57:25.734Z,91.85
2022-11-21T07:59:27.966Z,96.00
2022-11-21T08:01:30.325Z,100.00
2022-11-21T08:03:33.679Z,90.90
2022-11-21T08:05:40.858Z,105.47
2022-11-21T08:07:43.021Z,96.80
2022-11-21T08:09:45.138Z,87.82
2022-11-21T08:11:46.963Z,74.13
2022-11-21T08:13:49.102Z,71.43
2022-11-21T08:15:51.132Z,72.35
2022-11-21T08:17:52.986Z,71.57
2022-11-21T08:19:55.159Z,70.30
2022-11-21T08:21:56.951Z,70.55
2022-11-21T08:23:58.732Z,74.55
2022-11-21T08:26:01.043Z,78.53
2022-11-21T08:28:03.538Z,71.65
2022-11-21T08:30:10.744Z,68.10
2022-11-21T08:32:13.102Z,74.47
2022-11-21T08:34:14.942Z,76.10
2022-11-21T08:36:17.089Z,67.22
2022-11-21T08:38:19.272Z,78.55
2022-11-21T08:40:21.060Z,74.55
2022-11-21T08:42:22.858Z,82.50
2022-11-21T08:44:25.103Z,76.60
2022-11-21T08:46:28.260Z,66.53
2022-11-21T08:48:30.075Z,70.13
2022-11-21T08:50:32.506Z,74.68
2022-11-21T08:52:34.276Z,72.00
2022-11-21T08:54:36.046Z,74.30
2022-11-21T08:56:38.702Z,76.17
2022-11-21T08:58:40.554Z,65.40
2022-11-21T09:00:42.518Z,66.55
2022-11-21T09:02:44.878Z,67.45
2022-11-21T09:04:46.645Z,70.22
2022-11-21T09:06:48.651Z,75.70
2022-11-21T09:08:53.049Z,70.03
2022-11-21T09:10:54.835Z,74.03
2022-11-21T09:12:59.099Z,69.63
2022-11-21T09:15:19.988Z,74.20
2022-11-21T09:17:40.098Z,65.93
2022-11-21T09:19:42.258Z,70.68
2022-11-21T09:21:46.006Z,73.10
2022-11-21T09:23:48.060Z,69.72
2022-11-21T09:25:50.216Z,74.80
2022-11-21T09:27:52.027Z,70.15
2022-11-21T09:29:54.392Z,74.95
2022-11-21T09:31:56.857Z,71.75
2022-11-21T09:33:58.734Z,85.53
2022-11-21T09:36:01.280Z,82.45
2022-11-21T09:38:03.852Z,90.20
2022-11-21T09:40:06.398Z,87.10
2022-11-21T09:42:58.140Z,89.78
2022-11-21T09:45:19.691Z,98.10
2022-11-21T09:47:30.330Z,92.30
2022-11-21T09:49:40.615Z,96.05
2022-11-21T09:51:46.164Z,100.43
2022-11-21T09:53:58.718Z,87.97
2022-11-21T09:56:10.921Z,89.93
2022-11-21T09:58:31.427Z,75.60
2022-11-21T10:00:33.674Z,80.03
2022-11-21T10:02:35.468Z,77.03
2022-11-21T10:04:37.394Z,80.68
2022-11-21T10:06:53.658Z,90.65
2022-11-21T10:09:33.133Z,84.10
2022-11-21T10:12:01.211Z,84.20
2022-11-21T10:14:21.904Z,88.22
2022-11-21T10:16:40.649Z,83.93
2022-11-21T10:19:05.362Z,89.65
2022-11-21T10:21:32.373Z,86.60
2022-11-21T10:23:46.280Z,89.03
2022-11-21T10:26:02.731Z,83.05
2022-11-21T10:28:15.060Z,85.18
2022-11-21T10:30:19.699Z,80.03
2022-11-21T10:32:28.970Z,85.93
2022-11-21T10:34:37.350Z,86.15
2022-11-21T10:36:41.815Z,91.07
2022-11-21T10:38:44.873Z,82.55
2022-11-21T10:41:04.921Z,86.00
2022-11-21T10:43:56.522Z,79.03
2022-11-21T10:45:58.623Z,76.10
2022-11-21T10:48:03.868Z,79.60
2022-11-21T10:50:09.730Z,76.40
2022-11-21T10:52:19.127Z,72.10
2022-11-21T10:54:32.765Z,73.43
2022-11-21T10:56:36.697Z,71.50
2022-11-21T10:58:45.599Z,73.93
2022-11-21T11:00:57.724Z,91.90
2022-11-21T11:03:05.081Z,79.35
2022-11-21T11:05:16.434Z,71.45
2022-11-21T11:07:24.656Z,67.68
2022-11-21T11:09:33.034Z,68.72
2022-11-21T11:11:35.269Z,70.80
2022-11-21T11:14:06.260Z,65.63
2022-11-21T11:16:11.294Z,74.05
2022-11-21T11:18:14.582Z,69.78
2022-11-21T11:20:39.006Z,64.20
2022-11-21T11:22:41.198Z,69.70
2022-11-21T11:24:56.217Z,64.97
2022-11-21T11:27:02.895Z,70.03
2022-11-21T11:29:10.310Z,64.20
2022-11-21T11:31:12.212Z,70.88
2022-11-21T11:33:42.322Z,65.47
2022-11-21T11:35:44.458Z,69.95
2022-11-21T11:38:03.678Z,67.93
2022-11-21T11:40:18.936Z,67.03
2022-11-21T11:43:10.423Z,66.57
2022-11-21T11:45:30.882Z,64.30
2022-11-21T11:47:39.049Z,70.93
2022-11-21T11:50:07.682Z,68.78
2022-11-21T11:52:13.323Z,70.82
2022-11-21T11:54:20.220Z,72.93
2022-11-21T11:56:30.615Z,71.65
2022-11-21T11:58:42.891Z,62.80
2022-11-21T12:00:59.899Z,71.63
2022-11-21T12:03:15.473Z,69.07
2022-11-21T12:05:26.263Z,70.28
2022-11-21T12:08:38.977Z,68.68
2022-11-21T12:10:17.866Z,67.13
2022-11-21T12:12:36.277Z,74.55
2022-11-21T12:15:16.584Z,72.47
2022-11-21T12:17:25.433Z,67.07
2022-11-21T12:19:27.870Z,72.78
2022-11-21T12:21:30.027Z,72.28
2022-11-21T12:23:39.651Z,73.10
2022-11-21T12:25:53.111Z,70.20
2022-11-21T12:27:56.331Z,73.50
2022-11-21T12:30:08.699Z,67.78
2022-11-21T12:32:29.193Z,67.60
2022-11-21T12:34:43.371Z,72.22
2022-11-21T12:36:55.950Z,73.43
2022-11-21T12:39:00.538Z,65.15
2022-11-21T12:41:40.718Z,74.05
2022-11-21T12:43:57.730Z,68.90
2022-11-21T12:46:16.250Z,69.68
2022-11-21T12:48:50.101Z,73.72
2022-11-21T12:51:43.822Z,69.03
2022-11-21T12:54:30.942Z,80.32
2022-11-21T12:56:49.638Z,68.90
2022-11-21T12:58:54.240Z,70.70
2022-11-21T13:01:21.077Z,69.20
2022-11-21T13:03:41.979Z,70.13
2022-11-21T13:05:49.100Z,64.32
2022-11-21T13:08:02.401Z,69.85
2022-11-21T13:12:35.607Z,62.80
2022-11-21T13:14:49.978Z,65.50
2022-11-21T13:17:07.118Z,66.97
2022-11-21T13:19:20.402Z,71.07
2022-11-21T13:23:47.018Z,65.72
2022-11-21T13:25:49.090Z,73.15
2022-11-21T13:27:52.709Z,73.75
2022-11-21T13:30:06.922Z,73.03
2022-11-21T13:32:52.256Z,73.75
2022-11-21T13:34:54.380Z,78.25
2022-11-21T13:36:56.211Z,73.75
2022-11-21T13:38:57.991Z,75.32
2022-11-21T13:41:18.948Z,83.90
2022-11-21T13:43:33.304Z,83.35
2022-11-21T13:45:43.713Z,84.47
2022-11-21T13:48:02.537Z,87.15
2022-11-21T13:50:07.403Z,86.70
2022-11-21T13:52:35.029Z,77.82
2022-11-21T13:55:10.958Z,78.38
2022-11-21T13:57:18.753Z,77.40
2022-11-21T13:59:43.219Z,82.80
2022-11-21T14:02:15.382Z,77.78
2022-11-21T14:04:50.897Z,75.32
2022-11-21T14:06:52.798Z,79.57
2022-11-21T14:09:16.881Z,79.28
2022-11-21T14:11:21.507Z,72.97
2022-11-21T14:13:47.038Z,80.13
2022-11-21T14:16:04.707Z,83.70
2022-11-21T14:18:16.167Z,75.43
2022-11-21T14:20:25.976Z,73.68
2022-11-21T14:22:56.704Z,76.30
2022-11-21T14:24:59.807Z,76.13
2022-11-21T14:27:05.894Z,79.82
2022-11-21T14:29:27.413Z,89.18
2022-11-21T14:31:45.352Z,76.57
2022-11-21T14:33:48.313Z,81.43
2022-11-21T14:35:53.948Z,76.88
2022-11-21T14:37:55.820Z,89.72
2022-11-21T14:40:01.059Z,84.65
2022-11-21T14:42:05.468Z,81.10
2022-11-21T14:44:15.660Z,83.53
2022-11-21T14:46:21.394Z,86.47
2022-11-21T14:48:30.885Z,86.78
2022-11-21T14:50:35.134Z,100.80
2022-11-21T14:52:37.372Z,99.53
2022-11-21T14:57:28.171Z,103.93
2022-11-21T14:59:39.595Z,112.93
2022-11-21T15:01:47.414Z,112.30
2022-11-21T15:03:58.714Z,115.45
2022-11-21T15:06:06.304Z,113.20
2022-11-21T15:08:33.602Z,118.65
2022-11-21T15:10:36.259Z,117.88
2022-11-21T15:12:50.162Z,119.10
2022-11-21T15:15:02.796Z,118.82
2022-11-21T15:17:12.031Z,118.97
2022-11-21T15:19:20.419Z,112.95
2022-11-21T15:21:22.251Z,120.93
2022-11-21T15:23:32.109Z,124.20
2022-11-21T15:28:14.402Z,117.53
2022-11-21T15:30:25.973Z,118.22
2022-11-21T15:32:27.794Z,120.68
2022-11-21T15:34:37.229Z,123.53
2022-11-21T15:36:39.162Z,112.10
2022-11-21T15:38:49.867Z,115.20
2022-11-21T15:41:10.277Z,113.70
2022-11-21T15:43:12.297Z,115.97
2022-11-21T15:45:19.550Z,114.03
2022-11-21T15:47:22.362Z,116.63
2022-11-21T15:49:32.811Z,120.05
2022-11-21T15:54:14.205Z,119.93
2022-11-21T15:56:22.845Z,115.43
2022-11-21T15:57:12.319Z,125.28
2022-11-21T15:58:25.256Z,111.60
2022-11-21T16:00:27.042Z,117.60
2022-11-21T16:02:28.831Z,125.15
2022-11-21T16:04:31.002Z,119.60
2022-11-21T16:06:34.199Z,120.65
2022-11-21T16:08:36.500Z,123.53
2022-11-21T16:10:38.675Z,119.88
2022-11-21T16:12:40.650Z,117.75
2022-11-21T16:14:42.488Z,115.72
2022-11-21T16:16:45.260Z,117.25
2022-11-21T16:18:47.638Z,128.73
2022-11-21T16:20:49.408Z,117.85
2022-11-21T16:22:51.582Z,120.20
2022-11-21T16:24:53.351Z,112.47
2022-11-21T16:26:56.047Z,129.43
2022-11-21T16:28:59.593Z,115.78
2022-11-21T16:31:02.530Z,117.93
2022-11-21T16:35:06.677Z,123.78
2022-11-21T16:37:08.671Z,120.03
2022-11-21T16:39:16.636Z,109.68
2022-11-21T16:41:22.931Z,121.95
2022-11-21T16:43:24.945Z,123.78
2022-11-21T16:45:26.697Z,112.03
2022-11-21T16:47:28.916Z,120.28
2022-11-21T16:49:31.240Z,110.70
2022-11-21T16:51:33.150Z,117.65
2022-11-21T16:53:35.245Z,120.43
2022-11-21T16:55:37.766Z,120.15
2022-11-21T16:57:39.568Z,114.03
2022-11-21T16:59:41.731Z,118.15
2022-11-21T17:01:43.634Z,111.18
2022-11-21T17:03:47.346Z,94.68
2022-11-21T17:05:59.939Z,117.00
2022-11-21T17:08:01.810Z,120.15
2022-11-21T17:10:03.765Z,123.65
2022-11-21T17:12:06.205Z,114.82
2022-11-21T17:14:08.542Z,114.47
2022-11-21T17:16:11.953Z,113.05
2022-11-21T17:18:14.065Z,113.70
2022-11-21T17:20:15.936Z,120.15
2022-11-21T17:22:24.538Z,116.45
2022-11-21T17:24:27.040Z,111.50
2022-11-21T17:26:30.087Z,111.95
2022-11-21T17:28:32.820Z,114.72
2022-11-21T17:30:35.660Z,116.70
2022-11-21T17:32:37.513Z,115.85
2022-11-21T17:34:39.980Z,116.32
2022-11-21T17:36:42.079Z,117.53
2022-11-21T17:38:44.772Z,113.95
2022-11-21T17:42:48.608Z,113.82
2022-11-21T17:44:50.373Z,115.03
2022-11-21T17:46:52.527Z,121.72
2022-11-21T17:48:58.458Z,113.28
2022-11-21T17:51:04.005Z,112.82
2022-11-21T17:53:06.198Z,109.97
2022-11-21T17:55:07.970Z,112.43
2022-11-21T17:57:09.725Z,109.45
2022-11-21T17:59:13.294Z,119.30
2022-11-21T18:01:19.954Z,108.63
2022-11-21T18:03:22.863Z,111.43
2022-11-21T18:05:25.046Z,120.43
2022-11-21T18:07:27.064Z,111.38
2022-11-21T18:09:29.427Z,114.95
2022-11-21T18:11:39.285Z,110.30
2022-11-21T18:13:42.795Z,112.75
2022-11-21T18:17:47.093Z,112.25
2022-11-21T18:19:48.938Z,107.90
2022-11-21T18:21:51.954Z,112.22
2022-11-21T18:23:55.175Z,105.35
2022-11-21T18:26:04.690Z,109.57
2022-11-21T18:28:06.873Z,110.78
2022-11-21T18:30:09.291Z,106.40
2022-11-21T18:32:11.196Z,84.47
2022-11-21T18:34:13.346Z,107.57
2022-11-21T18:36:16.117Z,105.95
2022-11-21T18:38:46.231Z,109.38
2022-11-21T18:40:40.009Z,113.75
2022-11-21T18:42:41.874Z,107.07
2022-11-21T18:44:43.666Z,106.75
2022-11-21T18:46:47.015Z,110.22
2022-11-21T18:49:02.891Z,104.25
2022-11-21T18:51:13.183Z,99.93
2022-11-21T18:53:15.378Z,99.07
2022-11-21T18:55:17.162Z,103.07
2022-11-21T18:57:18.983Z,103.35
2022-11-21T18:59:21.198Z,101.28
2022-11-21T19:01:25.678Z,107.20
2022-11-21T19:03:27.815Z,105.80
2022-11-21T19:05:30.054Z,103.45
2022-11-21T19:07:31.843Z,103.00
2022-11-21T19:09:34.636Z,97.00
2022-11-21T19:11:36.622Z,98.13
2022-11-21T19:13:38.642Z,103.45
2022-11-21T19:15:42.898Z,98.00
2022-11-21T19:17:44.678Z,96.38
2022-11-21T19:19:48.318Z,99.13
2022-11-21T19:21:50.898Z,101.63
2022-11-21T19:23:52.680Z,108.78
2022-11-21T19:26:05.840Z,104.82
2022-11-21T19:28:08.179Z,89.82
2022-11-21T19:30:10.437Z,99.80
2022-11-21T19:32:12.210Z,111.15
2022-11-21T19:34:15.089Z,104.38
2022-11-21T19:36:20.040Z,99.03
2022-11-21T19:38:21.838Z,101.85
2022-11-21T19:40:23.974Z,100.38
2022-11-21T19:42:25.741Z,101.18
2022-11-21T19:44:27.536Z,97.35
2022-11-21T19:46:35.564Z,96.07
2022-11-21T19:48:37.408Z,98.13
2022-11-21T19:50:42.029Z,104.00
2022-11-21T19:52:46.730Z,109.10
2022-11-21T19:54:48.517Z,98.78
2022-11-21T19:56:50.727Z,99.03
2022-11-21T19:58:53.721Z,100.03
2022-11-21T20:03:06.478Z,101.00
2022-11-21T20:05:08.619Z,96.55
2022-11-21T20:07:10.637Z,98.70
2022-11-21T20:09:15.900Z,104.38
2022-11-21T20:11:17.883Z,101.63
2022-11-21T20:13:19.674Z,107.53
2022-11-21T20:15:22.075Z,92.88
2022-11-21T20:17:23.998Z,99.32
2022-11-21T20:19:26.843Z,101.95
2022-11-21T20:21:30.459Z,98.47
2022-11-21T20:23:32.214Z,106.43
2022-11-21T20:25:34.038Z,104.80
2022-11-21T20:27:36.191Z,103.75
2022-11-21T20:29:38.006Z,96.15
2022-11-21T20:31:39.794Z,105.35
2022-11-21T20:33:44.551Z,104.45
2022-11-21T20:35:46.327Z,100.80
2022-11-21T20:37:48.105Z,100.60
2022-11-21T20:39:50.370Z,102.15
2022-11-21T20:41:52.122Z,99.57
2022-11-21T20:46:21.475Z,102.25
2022-11-21T20:48:23.596Z,104.78
2022-11-21T20:51:03.511Z,103.82
2022-11-21T20:55:10.026Z,103.80
2022-11-21T20:57:15.183Z,105.20
2022-11-21T20:59:17.846Z,105.22
2022-11-21T21:01:21.091Z,109.93
2022-11-21T21:03:23.410Z,113.53
2022-11-21T21:05:26.036Z,119.70
2022-11-21T21:07:27.910Z,101.97
2022-11-21T21:09:30.422Z,104.22
2022-11-21T21:13:54.706Z,108.20
2022-11-21T21:16:07.066Z,102.78
2022-11-21T21:18:08.919Z,98.33
2022-11-21T21:20:11.353Z,101.40
2022-11-21T21:22:13.244Z,101.33
2022-11-21T21:24:15.917Z,107.50
2022-11-21T21:26:21.090Z,105.72
2022-11-21T21:28:22.865Z,100.70
2022-11-21T21:30:24.867Z,107.05
2022-11-21T21:32:27.063Z,99.95
2022-11-21T21:34:29.239Z,102.63
2022-11-21T21:36:32.200Z,100.68
2022-11-21T21:40:36.515Z,93.53
2022-11-21T21:42:38.376Z,100.13
2022-11-21T21:44:40.751Z,102.38
2022-11-21T21:46:42.923Z,101.23
2022-11-21T21:48:46.264Z,100.97
2022-11-21T21:50:48.575Z,98.30
2022-11-21T21:52:50.428Z,101.32
2022-11-21T21:54:52.223Z,105.68
2022-11-21T21:56:54.545Z,94.97
2022-11-21T21:58:57.939Z,101.53
2022-11-21T22:01:12.589Z,99.03
2022-11-21T22:03:14.774Z,102.57
2022-11-21T22:05:16.515Z,99.72
2022-11-21T22:07:18.501Z,98.03
2022-11-21T22:09:20.697Z,104.05
2022-11-21T22:11:35.527Z,103.13
2022-11-21T22:13:39.220Z,100.15
2022-11-21T22:15:41.507Z,93.15
2022-11-21T22:17:43.334Z,99.07
2022-11-21T22:19:45.464Z,90.25
2022-11-21T22:21:47.507Z,100.95
2022-11-21T22:24:23.554Z,102.67
2022-11-21T22:26:12.483Z,98.43
2022-11-21T22:28:14.361Z,95.97
2022-11-21T22:30:16.550Z,107.22
2022-11-21T22:32:20.061Z,96.45
2022-11-21T22:34:22.835Z,100.10
2022-11-21T22:36:24.888Z,95.82
2022-11-21T22:38:30.001Z,107.88
2022-11-21T22:40:32.730Z,97.57
2022-11-21T22:42:34.519Z,95.10
2022-11-21T22:44:36.628Z,91.20
2022-11-21T22:46:38.511Z,95.28
2022-11-21T22:48:40.685Z,96.20
2022-11-21T22:50:44.015Z,94.22
2022-11-21T22:54:47.620Z,95.20
2022-11-21T22:56:49.800Z,92.85
2022-11-21T22:58:52.166Z,99.15
2022-11-21T23:00:59.879Z,92.68
2022-11-21T23:03:02.006Z,94.65
2022-11-21T23:05:04.296Z,85.80
2022-11-21T23:07:06.753Z,92.45
2022-11-21T23:09:09.123Z,89.63
2022-11-21T23:11:14.399Z,91.45
2022-11-21T23:13:16.292Z,86.57
2022-11-21T23:15:18.455Z,91.38
2022-11-21T23:17:20.738Z,89.05
2022-11-21T23:19:23.006Z,88.03
2022-11-21T23:21:24.910Z,94.07
2022-11-21T23:23:26.975Z,83.38
2022-11-21T23:25:29.229Z,87.82
2022-11-21T23:27:31.082Z,82.40
2022-11-21T23:29:32.982Z,83.50
2022-11-21T23:31:35.182Z,85.60
2022-11-21T23:33:37.140Z,92.55
2022-11-21T23:35:39.414Z,83.53
2022-11-21T23:37:41.612Z,89.30
2022-11-21T23:39:43.724Z,73.17
2022-11-21T23:41:45.581Z,88.63
2022-11-21T23:43:47.759Z,90.43
2022-11-21T23:45:54.015Z,87.30
2022-11-21T23:47:55.826Z,86.72
2022-11-21T23:49:57.986Z,83.82
2022-11-21T23:51:59.816Z,92.22
2022-11-21T23:54:01.730Z,83.82
2022-11-21T23:56:04.123Z,89.38
2022-11-21T23:58:05.913Z,88.75
